St. HILARI SACALM (La Selva)





Hora UTC 20:45
Temperatura 5.5 ºC
Sòl 15 cm 3.5 ºC
Humitat 54.4 %
Pressió 1004.3 hPa
Pluja 0.7 mm
Velocitat vent 14.4 km/h
Direcció vent WSW
Radiació solar 0.1 W/m²

Dades diàries 2024-02-23



Hora UTC (hivern +1h; estiu +2h)
Temperatura (ºC) Humitat (%) Pressió (hPa) Velocitat vent (km/h) Precipitació (mm) Radiació solar (W/m²)
Hora UTC Aire Sòl 15 cm Humitat Pressió Vel. Dir. Vel. Max Dir. Intent. màx 5 min. Rad. Sol.
00:05 7.7 7.0 93.5 1003.6 6.6 ESE 6.6 ESE 0.0 0.1
00:10 7.6 7.0 93.6 1003.5 6.5 ESE 19.6 SE 0.0 0.1
00:15 7.6 7.0 93.7 1003.5 11.1 ESE 22.3 ESE 0.1 0.1
00:20 7.6 7.0 94.0 1003.6 11.1 ESE 22.3 ESE 0.1 0.1
00:25 7.6 7.0 94.2 1003.7 5.9 SSE 16.9 SSE 0.1 0.1
00:30 7.6 7.0 94.2 1003.7 9.3 SSE 16.9 SSE 0.0 0.1
00:35 7.6 7.0 94.2 1003.7 9.5 SSE 16.9 SSE 0.1 0.1
00:40 7.5 6.9 94.2 1003.6 9.8 SSE 14.2 SE 0.0 0.1
00:45 7.5 6.9 94.4 1003.5 7.2 SE 16.9 SE 0.0 0.1
00:50 7.5 6.9 94.4 1003.4 9.7 SE 16.9 ESE 0.1 0.1
00:55 7.4 6.8 94.3 1003.3 6.1 ESE 16.9 SE 0.0 0.1
01:00 7.1 6.6 94.2 1003.3 5.3 E 19.6 ESE 0.0 0.1
01:05 7.0 6.5 94.9 1003.2 7.2 ESE 19.6 SSW 0.0 0.1
01:10 7.0 6.5 95.1 1003.1 10.6 ESE 22.3 ESE 0.0 0.1
01:15 6.9 6.5 95.1 1002.9 9.5 ESE 19.6 E 0.0 0.1
01:20 6.8 6.4 95.1 1003.0 7.4 ESE 16.9 ESE 0.0 0.1
01:25 6.9 6.4 95.3 1003.0 4.3 SE 8.8 SSW 0.0 0.1
01:30 6.4 6.1 94.5 1003.1 2.7 ENE 8.8 ENE 0.0 0.1
01:35 6.4 6.1 95.5 1003.2 4.1 SSE 14.2 S 0.0 0.1
01:40 6.8 6.4 96.3 1003.3 7.0 SSE 22.3 SSE 0.0 0.1
01:45 7.0 6.6 96.3 1003.4 12.6 S 22.3 SSE 0.1 0.1
01:50 7.0 6.6 96.2 1003.3 11.1 SSE 25.0 S 0.0 0.1
01:55 7.0 6.6 96.4 1003.3 6.7 SSE 16.9 SSE 0.0 0.1
02:00 7.0 6.6 96.3 1003.2 6.0 SSE 14.2 SSW 0.0 0.1
02:05 6.9 6.6 96.4 1003.0 7.4 SE 14.2 SSE 0.0 0.1
02:10 6.9 6.5 96.5 1002.9 5.7 SE 11.5 E 0.0 0.1
02:15 6.9 6.5 96.6 1003.0 5.8 SSE 11.5 SSE 0.0 0.1
02:20 6.8 6.5 96.5 1003.0 5.6 SSE 11.5 S 0.0 0.1
02:25 6.8 6.5 96.5 1002.8 2.7 SSE 11.5 SSE 0.0 0.1
02:30 6.8 6.4 96.6 1002.7 4.8 SE 11.5 ESE 0.0 0.1
02:35 6.2 6.0 95.6 1002.4 7.2 ENE 11.5 ESE 0.0 0.1
02:40 5.5 5.4 95.4 1002.4 4.3 NNE 8.8 NNE 0.0 0.1
02:45 5.2 5.0 95.7 1002.7 0.3 NNE 3.4 NNE 0.0 0.1
02:50 5.1 4.9 96.1 1002.6 1.4 NNE 6.1 N 0.0 0.1
02:55 5.1 4.8 96.5 1002.4 1.9 NNE 8.8 NNE 0.0 0.1
03:00 5.3 5.0 96.9 1002.5 0.3 S 6.1 S 0.0 0.1
03:05 5.3 5.0 97.0 1002.6 2.1 S 8.8 S 0.0 0.1
03:10 5.9 5.4 97.7 1002.4 1.9 SSE 8.8 S 0.0 0.1
03:15 6.0 5.7 97.4 1002.4 1.4 SE 6.1 SSE 0.0 0.1
03:20 6.0 5.7 97.0 1002.4 0.7 S 6.1 SSE 0.0 0.1
03:25 5.6 5.4 96.4 1002.4 0.2 E 6.1 E 0.0 0.1
03:30 5.2 5.1 96.2 1002.4 6.5 ENE 11.5 ENE 0.0 0.1
03:35 5.0 4.8 96.6 1002.4 3.1 NE 6.1 ENE 0.0 0.1
03:40 5.1 4.8 96.8 1002.3 2.2 NNE 6.1 NE 0.0 0.1
03:45 5.1 4.8 96.9 1002.4 0.3 N 3.4 N 0.0 0.1
03:50 5.1 4.8 97.0 1002.4 0.1 ENE 3.4 NE 0.0 0.1
03:55 5.1 4.8 97.0 1002.4 0.0 NNE 0.0 ENE 0.0 0.1
04:00 5.0 4.8 97.0 1002.5 0.0 NNE 0.0 ENE 0.0 0.1
04:05 4.8 4.6 96.6 1002.5 4.9 NE 8.8 ENE 0.0 0.1
04:10 4.6 4.4 96.7 1002.5 4.7 NNE 11.5 NNE 0.0 0.1
04:15 4.4 4.2 96.7 1002.6 5.4 ENE 11.5 E 0.0 0.1
04:20 4.3 4.1 97.0 1002.6 5.0 E 8.8 E 0.0 0.1
04:25 4.3 4.1 97.2 1002.7 5.7 E 8.8 ESE 0.1 0.1
04:30 4.3 4.1 97.2 1002.6 5.8 NE 8.8 ENE 0.0 0.1
04:35 4.2 4.0 97.1 1002.6 3.7 NNE 8.8 NNE 0.0 0.1
04:40 4.2 3.9 97.1 1002.7 3.0 ENE 8.8 ENE 0.0 0.1
04:45 4.1 3.9 97.1 1002.6 1.5 E 6.1 ENE 0.0 0.1
04:50 4.1 3.8 97.2 1002.6 5.4 ENE 8.8 ENE 0.0 0.1
04:55 3.8 3.6 96.9 1002.7 6.6 ENE 11.5 NE 0.0 0.1
05:00 3.7 3.4 97.1 1002.7 5.4 NE 11.5 ENE 0.0 0.1
05:05 3.6 3.3 97.2 1002.8 3.7 NE 11.5 NNE 0.0 0.1
05:10 3.2 3.0 96.7 1002.8 10.5 ENE 16.9 ENE 0.0 0.1
05:15 2.9 2.7 96.9 1002.8 6.0 ENE 11.5 ENE 0.0 0.1
05:20 2.8 2.6 97.2 1002.7 1.7 ENE 8.8 ENE 0.0 0.1
05:25 2.9 2.7 97.4 1002.7 3.4 SE 6.1 SE 0.0 0.1
05:30 3.0 2.6 97.5 1002.6 5.2 S 8.8 SSE 0.0 0.1
05:35 3.2 2.6 97.9 1002.6 3.2 SSW 8.8 SSW 0.0 0.1
05:40 3.4 2.7 98.0 1002.6 0.1 S 6.1 S 0.0 0.1
05:45 3.1 2.6 97.0 1002.6 6.2 ENE 11.5 ENE 0.0 0.1
05:50 2.6 2.3 96.8 1002.6 6.0 NE 11.5 ENE 0.0 0.1
05:55 2.5 2.2 97.1 1002.7 1.9 NNE 8.8 N 0.0 0.1
06:00 2.5 2.2 97.4 1002.7 0.0 NNE 0.0 N 0.0 0.1
06:05 2.5 2.2 97.4 1002.8 0.0 NNE 0.0 N 0.0 0.1
06:10 2.6 2.3 97.5 1002.9 0.0 NNE 0.0 N 0.0 0.1
06:15 2.6 2.4 97.6 1002.9 0.0 NNE 0.0 N 0.0 0.1
06:20 2.7 2.5 97.6 1002.9 0.0 NNE 0.0 N 0.0 0.1
06:25 2.7 2.5 97.5 1002.9 0.8 SSE 8.8 SSW 0.0 0.1
06:30 2.9 2.6 97.8 1003.0 0.9 ENE 6.1 ENE 0.0 0.1
06:35 2.8 2.6 97.4 1003.2 1.2 SSW 6.1 S 0.0 0.2
06:40 2.9 2.6 97.7 1003.3 5.3 S 11.5 S 0.0 0.5
06:45 2.8 2.6 97.5 1003.4 3.5 SSE 8.8 SSE 0.0 1.0
06:50 2.8 2.5 97.6 1003.4 3.7 SSE 8.8 SE 0.0 1.8
06:55 2.7 2.4 97.5 1003.4 3.5 SE 8.8 SSE 0.0 2.2
07:00 2.6 2.4 97.6 1003.4 5.3 SSE 8.8 S 0.0 2.4
07:05 2.6 2.4 97.5 1003.4 2.8 SSE 6.1 S 0.0 3.5
07:10 2.7 2.4 97.6 1003.5 3.6 S 6.1 S 0.0 9.0
07:15 2.7 2.5 97.7 1003.7 4.1 SSW 8.8 W 0.0 7.3
07:20 2.8 2.6 97.7 1003.7 2.8 SSW 8.8 S 0.0 2.6
07:25 2.8 2.6 97.5 1003.8 2.8 SSW 6.1 SSW 0.0 3.0
07:30 2.8 2.6 97.5 1003.9 2.7 S 6.1 SSW 0.0 7.1
07:35 2.8 2.7 97.6 1003.8 0.3 SSE 3.4 SSE 0.0 11.4
07:40 2.8 2.7 97.5 1003.8 1.2 SE 6.1 SE 0.0 26.6
07:45 2.9 2.9 97.6 1003.9 2.5 SSW 8.8 WSW 0.0 33.6
07:50 3.0 3.0 97.6 1004.0 3.7 SSW 8.8 SW 0.0 34.2
07:55 3.0 3.1 97.6 1004.1 3.1 SSW 8.8 SSW 0.0 43.5
08:00 3.1 3.2 97.4 1004.1 0.9 SSW 6.1 SSE 0.0 41.3
08:05 3.1 3.3 97.4 1004.1 0.5 SE 6.1 S 0.0 40.1
08:10 3.1 3.2 97.2 1004.2 0.2 ESE 3.4 SE 0.0 47.0
08:15 3.2 3.4 97.3 1004.2 0.7 SSW 6.1 SW 0.0 68.5
08:20 3.4 3.7 97.2 1004.2 0.9 WSW 6.1 W 0.0 62.1
08:25 3.6 4.0 97.1 1004.2 0.1 W 3.4 W 0.0 106.1
08:30 3.6 4.4 96.5 1004.2 0.2 S 6.1 S 0.0 132.5
08:35 3.7 4.6 96.2 1004.3 0.3 NW 6.1 NW 0.0 140.2
08:40 3.9 4.6 96.2 1004.3 0.9 N 3.4 N 0.0 123.9
08:45 3.7 4.7 95.4 1004.4 0.0 NNE 0.0 NE 0.0 75.3
08:50 3.8 4.7 95.8 1004.4 0.0 NNE 0.0 ENE 0.0 80.0
08:55 4.0 4.8 96.0 1004.4 0.0 NNE 0.0 N 0.0 102.7
09:00 3.9 4.7 95.5 1004.3 0.3 NW 6.1 NW 0.0 99.1
09:05 3.6 4.4 94.9 1004.3 4.4 NW 8.8 W 0.0 132.5
09:10 3.8 4.9 94.9 1004.3 1.7 WNW 8.8 W 0.0 183.8
09:15 3.9 5.2 93.9 1004.2 3.2 SW 8.8 WNW 0.0 160.2
09:20 4.2 5.7 94.2 1004.3 5.1 S 8.8 SSE 0.0 176.3
09:25 4.2 5.8 92.9 1004.3 5.8 SSW 14.2 SW 0.0 158.5
09:30 4.2 5.4 90.6 1004.2 8.6 WSW 16.9 WSW 0.0 130.0
09:35 4.1 4.8 88.8 1004.2 7.6 SW 19.6 SW 0.0 143.9
09:40 4.4 5.5 89.3 1004.2 7.6 SSW 22.3 S 0.0 273.4
09:45 4.6 5.5 82.2 1004.2 10.7 SSW 19.6 S 0.0 183.4
09:50 5.0 6.2 79.9 1004.3 7.8 SSW 16.9 SSE 0.0 323.3
09:55 5.6 7.4 77.7 1004.3 5.9 SW 14.2 WSW 0.0 294.4
10:00 6.2 8.7 74.9 1004.2 8.3 W 16.9 WSW 0.0 511.2
10:05 6.3 9.2 71.9 1004.3 11.9 WNW 22.3 W 0.0 499.4
10:10 6.4 9.4 70.0 1004.3 10.3 WSW 22.3 W 0.0 362.9
10:15 6.6 9.5 69.1 1004.3 12.0 WSW 33.1 W 0.0 281.2
10:20 6.6 9.6 68.5 1004.4 9.9 SW 22.3 SW 0.0 418.6
10:25 6.8 9.6 67.5 1004.4 8.4 SW 16.9 WSW 0.0 211.6
10:30 6.5 8.8 68.0 1004.5 9.3 SW 22.3 SSW 0.0 169.8
10:35 6.1 7.9 70.0 1004.5 8.3 SW 22.3 SW 0.0 127.4
10:40 6.0 7.3 70.6 1004.6 7.2 SW 14.2 SSW 0.0 118.4
10:45 5.9 6.8 70.9 1004.6 10.1 SW 22.3 W 0.0 126.6
10:50 5.8 6.5 69.7 1004.6 7.6 WSW 16.9 W 0.0 137.3
10:55 5.8 6.5 68.4 1004.5 7.7 WSW 16.9 WNW 0.0 167.1
11:00 5.8 6.4 67.0 1004.5 11.0 WSW 25.0 WSW 0.0 178.8
11:05 6.1 7.4 66.1 1004.6 9.7 WSW 19.6 W 0.0 386.8
11:10 6.6 8.6 64.0 1004.5 8.5 WSW 19.6 SSW 0.0 292.7
11:15 6.9 9.7 63.3 1004.4 10.3 WSW 16.9 W 0.0 633.4
11:20 7.0 10.4 62.2 1004.3 13.3 WNW 25.0 WNW 0.0 435.8
11:25 6.6 9.4 63.0 1004.3 13.7 WNW 27.7 WNW 0.0 355.4
11:30 6.7 9.5 62.9 1004.2 5.7 NNW 19.6 W 0.0 325.8
11:35 7.1 9.9 57.9 1004.3 13.3 W 27.7 W 0.0 405.9
11:40 7.1 9.5 57.3 1004.3 11.8 WNW 27.7 WNW 0.0 387.9
11:45 7.3 10.0 56.2 1004.3 16.6 WNW 33.1 WNW 0.0 476.4
11:50 7.3 9.7 54.3 1004.3 12.3 W 25.0 WNW 0.0 223.6
11:55 7.4 9.6 53.5 1004.2 13.7 WSW 27.7 S 0.0 289.8
12:00 7.6 9.7 52.7 1004.2 14.8 SW 27.7 W 0.0 323.4
12:05 7.9 10.5 50.8 1004.1 14.9 SW 30.4 SW 0.0 353.2
12:10 7.9 10.3 50.9 1004.0 11.0 SW 25.0 SW 0.0 269.0
12:15 7.9 10.6 51.4 1003.9 10.1 SSW 19.6 SSW 0.0 313.8
12:20 8.1 10.8 51.0 1003.9 14.1 WSW 30.4 WSW 0.0 418.1
12:25 8.2 11.3 50.5 1003.9 14.0 WSW 25.0 SW 0.0 386.3
12:30 7.8 10.3 51.7 1003.9 13.4 W 30.4 SW 0.0 248.1
12:35 7.2 8.8 52.0 1003.8 14.5 WNW 25.0 W 0.0 197.3
12:40 7.0 8.3 52.8 1003.7 12.7 WSW 22.3 WSW 0.0 184.1
12:45 7.0 8.2 53.2 1003.6 14.4 WNW 33.1 W 0.0 275.4
12:50 7.3 8.9 53.0 1003.6 18.1 WNW 33.1 WNW 0.0 578.6
12:55 7.7 10.0 51.3 1003.5 13.2 WNW 27.7 WNW 0.0 268.1
13:00 7.5 9.0 51.6 1003.4 12.3 W 35.8 WNW 0.0 362.0
13:05 8.3 10.9 50.9 1003.3 11.5 WSW 27.7 WNW 0.0 568.7
13:10 8.8 12.1 49.1 1003.3 14.9 WSW 38.5 W 0.0 511.3
13:15 8.8 12.4 49.0 1003.3 14.7 WSW 33.1 WNW 0.0 601.6
13:20 9.0 12.6 48.4 1003.2 13.9 W 30.4 WNW 0.0 385.1
13:25 8.2 10.8 49.9 1003.2 16.5 WNW 30.4 W 0.0 472.8
13:30 8.7 11.9 48.7 1003.1 16.1 SW 27.7 WSW 0.0 585.0
13:35 9.0 12.6 48.1 1003.0 16.3 W 35.8 WNW 0.0 577.3
13:40 8.8 12.3 48.4 1002.9 15.0 WNW 30.4 WNW 0.0 563.9
13:45 9.4 13.0 46.2 1002.9 15.1 WSW 35.8 W 0.0 557.4
13:50 9.5 13.0 45.6 1003.0 16.3 W 35.8 W 0.0 550.6
13:55 9.6 13.3 45.9 1003.0 13.0 WSW 30.4 SSW 0.0 546.0
14:00 9.6 13.3 46.1 1003.0 12.7 W 25.0 SW 0.0 468.2
14:05 9.7 13.4 45.4 1003.1 11.0 WSW 27.7 SW 0.0 579.2
14:10 10.1 14.2 44.2 1003.0 11.4 W 38.5 SW 0.0 557.6
14:15 10.2 14.2 44.1 1003.1 14.6 WSW 27.7 SSW 0.0 527.3
14:20 10.1 13.7 44.0 1003.1 11.5 WSW 25.0 WSW 0.0 522.5
14:25 10.3 13.8 43.3 1003.0 12.1 WSW 27.7 SSW 0.0 523.1
14:30 10.2 13.4 42.6 1003.0 14.0 SW 33.1 SW 0.0 487.1
14:35 10.1 12.2 42.4 1003.0 14.7 SW 30.4 SW 0.0 172.9
14:40 9.5 10.5 42.8 1003.0 10.0 SW 22.3 S 0.0 71.1
14:45 9.1 9.6 44.4 1003.1 12.4 WSW 27.7 W 0.0 126.4
14:50 9.1 9.3 45.5 1003.0 12.1 SW 22.3 SW 0.0 114.2
14:55 9.0 9.2 45.6 1003.0 12.8 WSW 30.4 SW 0.0 150.9
15:00 9.0 9.5 45.1 1003.0 11.6 WSW 22.3 WSW 0.0 132.1
15:05 9.0 9.2 43.7 1003.0 14.1 WSW 27.7 SW 0.0 150.2
15:10 8.9 9.5 45.8 1002.9 13.3 W 30.4 W 0.0 410.2
15:15 9.3 10.1 45.3 1002.9 16.6 WSW 30.4 SSW 0.0 254.8
15:20 9.1 9.4 46.6 1003.0 15.5 WSW 30.4 W 0.0 77.4
15:25 8.9 8.8 47.4 1003.0 13.1 WSW 22.3 WSW 0.0 78.2
15:30 8.7 8.5 47.4 1003.0 10.9 W 25.0 W 0.0 104.8
15:35 8.6 8.7 47.8 1003.0 12.4 WSW 22.3 SW 0.0 135.0
15:40 8.8 8.8 47.9 1003.0 13.1 SW 25.0 WSW 0.0 88.3
15:45 8.7 8.6 47.7 1003.0 16.9 SW 35.8 SW 0.0 82.3
15:50 8.7 8.5 47.3 1003.1 18.1 SW 35.8 SSW 0.0 107.0
15:55 8.6 8.5 47.3 1003.0 16.7 SW 30.4 SSW 0.0 113.4
16:00 8.6 8.6 47.3 1003.0 12.9 WSW 25.0 W 0.0 82.1
16:05 8.6 8.4 46.7 1003.1 12.0 WSW 22.3 SW 0.0 67.5
16:10 8.5 8.2 46.4 1003.1 15.3 WSW 27.7 W 0.0 67.0
16:15 8.5 8.2 46.8 1003.2 17.4 SW 33.1 SW 0.0 69.9
16:20 8.5 8.2 46.3 1003.3 14.6 WSW 33.1 W 0.0 65.0
16:25 8.3 8.1 45.6 1003.2 13.5 W 27.7 WSW 0.0 83.2
16:30 8.3 8.1 45.3 1003.3 16.7 W 33.1 WNW 0.0 74.8
16:35 8.2 7.8 45.2 1003.3 12.8 W 27.7 W 0.0 66.1
16:40 8.2 7.7 45.5 1003.4 10.2 WSW 22.3 W 0.0 96.0
16:45 8.3 7.6 45.6 1003.4 8.3 SW 16.9 W 0.0 67.7
16:50 8.3 7.5 45.7 1003.4 11.5 WSW 25.0 SW 0.0 68.6
16:55 8.1 7.3 45.2 1003.5 11.7 WSW 27.7 SW 0.0 52.4
17:00 8.0 7.1 45.2 1003.5 9.8 WSW 22.3 NW 0.0 43.5
17:05 7.9 6.8 45.0 1003.6 7.6 WSW 16.9 W 0.0 33.6
17:10 7.9 6.6 45.9 1003.6 7.2 SW 16.9 WSW 0.0 28.0
17:15 7.7 6.2 46.3 1003.7 5.6 SSW 19.6 W 0.0 21.2
17:20 7.6 5.9 46.1 1003.8 10.3 WSW 22.3 WSW 0.0 18.6
17:25 7.5 5.8 45.9 1003.9 11.2 SW 27.7 WSW 0.0 14.1
17:30 7.4 5.6 46.5 1003.9 7.7 SSW 16.9 SW 0.0 10.5
17:35 7.2 5.2 47.0 1003.9 5.6 WSW 16.9 W 0.0 7.2
17:40 7.0 4.9 47.9 1003.9 8.0 WSW 22.3 SW 0.0 3.8
17:45 6.9 4.8 48.8 1003.9 15.5 WSW 27.7 WSW 0.0 1.9
17:50 6.9 4.9 49.2 1004.0 15.8 SW 33.1 WSW 0.0 0.9
17:55 6.8 5.0 49.1 1004.0 17.9 SW 35.8 SSW 0.0 0.3
18:00 6.8 5.0 49.0 1004.0 18.1 SW 38.5 SW 0.0 0.1
18:05 6.7 5.0 49.0 1004.1 20.4 SW 38.5 SW 0.0 0.1
18:10 6.6 4.9 49.0 1004.1 21.1 SW 38.5 SW 0.0 0.1
18:15 6.5 4.8 49.0 1004.2 20.9 SW 41.2 SSW 0.0 0.1
18:20 6.4 4.7 49.1 1004.2 18.9 SW 38.5 WSW 0.0 0.1
18:25 6.3 4.6 49.2 1004.1 17.5 SW 35.8 WSW 0.0 0.1
18:30 6.2 4.4 49.5 1004.2 14.6 SW 30.4 SW 0.0 0.1
18:35 6.1 4.2 49.6 1004.3 14.2 SW 33.1 W 0.0 0.1
18:40 6.0 4.0 50.0 1004.4 12.4 SW 27.7 WSW 0.0 0.1
18:45 6.0 3.9 50.1 1004.4 14.8 SW 30.4 SSW 0.0 0.1
18:50 6.0 3.9 50.3 1004.4 14.3 SW 27.7 SW 0.0 0.1
18:55 5.9 3.9 50.6 1004.5 11.1 WSW 27.7 W 0.0 0.1
19:00 5.9 3.9 50.5 1004.5 10.3 WSW 22.3 WSW 0.0 0.1
19:05 5.8 3.8 51.2 1004.5 11.7 WSW 25.0 W 0.0 0.1
19:10 5.7 3.6 51.5 1004.4 11.7 WSW 35.8 SW 0.0 0.1
19:15 5.7 3.6 51.5 1004.4 13.0 SW 27.7 SW 0.0 0.1
19:20 5.7 3.5 51.6 1004.4 13.5 SW 30.4 SW 0.0 0.1
19:25 5.6 3.5 51.8 1004.4 14.5 SW 30.4 SW 0.0 0.1
19:30 5.6 3.5 52.2 1004.3 13.8 SW 27.7 SW 0.0 0.1
19:35 5.7 3.7 52.2 1004.2 16.8 SW 41.2 WSW 0.0 0.1
19:40 5.7 3.6 52.4 1004.3 13.9 WSW 38.5 SW 0.0 0.1
19:45 5.6 3.7 52.6 1004.3 15.4 WSW 41.2 W 0.0 0.1
19:50 5.6 3.6 52.9 1004.3 12.0 WSW 33.1 SW 0.0 0.1
19:55 5.6 3.6 53.1 1004.3 13.8 WSW 33.1 WSW 0.0 0.1
20:00 5.7 3.8 53.5 1004.2 13.5 W 33.1 W 0.0 0.1
20:05 5.6 3.7 54.0 1004.2 13.6 WSW 30.4 SSW 0.0 0.1
20:10 5.6 3.5 54.3 1004.2 14.2 WSW 35.8 WSW 0.0 0.1
20:15 5.6 3.7 54.9 1004.2 18.6 WSW 35.8 W 0.0 0.1
20:20 5.7 3.7 55.2 1004.3 15.8 WSW 35.8 WSW 0.0 0.1
20:25 5.6 3.6 55.5 1004.3 16.6 WSW 35.8 SSW 0.0 0.1
20:30 5.6 3.7 55.2 1004.2 16.7 WSW 41.2 SW 0.0 0.1
20:35 5.6 3.7 54.8 1004.3 14.5 WSW 27.7 W 0.0 0.1
20:40 5.6 3.6 54.6 1004.3 12.4 WSW 35.8 WNW 0.0 0.1
20:45 5.5 3.5 54.4 1004.3 14.4 WSW 33.1 W 0.0 0.1
Màxima 10.4 14.2 98.0 1004.6 21.1 SW 41.2 SW 0.1 633.4
Mínima 2.4 2.2 42.4 1002.3
Total 0.7